Mount Pleasant, TX

3:32 PM CDT on March 23, 2017 (GMT -0500)
Union Hill Road at CR 4640 | | Change Station
Active Advisory: Lake Wind Advisory

Elev 425 ft 33.09 °N, 94.90 °W | Updated 0 second ago

Clear
Clear
84.5 °F
Feels Like 83 °F
N
10.0
Wind Variable Wind from SSW
Gusts 16.0 mph

Today
High -- | Low -- °F
--% Chance of Precip.
Yesterday
High -- | Low -- °F
Precip. -- in
Pressure 30.03 in
Visibility 10.0 miles
Clouds Clear
Heat Index 83 °F
Dew Point 55 °F
Humidity 36%
Rainfall 0.00 in
Snow Depth Not available.
7:19 AM 7:33 PM
Waning Crescent, 21% visible
METAR KOSA 232015Z AUTO 18017G24KT 10SM CLR 29/10 A3003 RMK AO1 T02850102
Pressure 30.03 in
Visibility 10.0 miles
Clouds Clear
Heat Index 83 °F
Dew Point 55 °F
Humidity 36%
Rainfall 0.00 in
Snow Depth Not available.
7:19 AM 7:33 PM
Waning Crescent, 21% visible
METAR KOSA 232015Z AUTO 18017G24KT 10SM CLR 29/10 A3003 RMK AO1 T02850102

Get Your Daily Forecast Email!

Thanks for signing up!

Be on the lookout for a verification email in your inbox.

You'll start receiving severe weather alerts in your inbox..

×

10-Day Weather Forecast

Almanac

Astronomy

Mar. 23, 2017 Rise Set
Actual Time
Civil Twilight
Nautical Twilight
Astronomical Twilight
Moon
Length of Visible Light
Length of Day
Tomorrow will be .
, % of the Moon is Illuminated

Today's Extremes

State Highs State Lows

Community

WunderPhotos

Upload Photos

1,962,540 photos uploaded!

WunderBlog® & News

Nearby

Air Quality

  Air Quality AQ Index Pollutant
Not available.

Snow Depth

Station Depth Elevation

Earthquake Activity

City Distance Mag. Time & Date
Minimum magnitude displayed is 2.5.

Earthquake Activity

City Distance Mag. Time & Date
Minimum magnitude displayed is 2.5.

Coastal Water Temperatures

Place Temperature

Stations

Nearby Weather Stations

Station Location Temp. Windchill Dew Point Humidity Wind Precip. Elev Updated Type
                   

Watches & Warnings

Lake Wind Advisory
Issued: 3:30 PM CDT Mar. 23, 2017 – National Weather Service

... Lake Wind Advisory remains in effect until 7 PM CDT this
evening...

* event... south to southeast winds of 15 to 20 mph with gusts up
to 30 mph will continue through the early evening hours courtesy
of an enhanced pressure gradient.

* Timing... through 7 PM CDT.

* Impact... winds will likely produce rough chop on area lakes
and open waterways, which may be hazardous to boaters.

Precautionary/preparedness actions...

A lake Wind Advisory indicates that winds will cause rough chop
on area lakes. Small boats will be especially prone to capsizing.